sensor_id;sensor_type;location;lat;lon;timestamp;P1;durP1;ratioP1;P2;durP2;ratioP2
22282;SDS011;11310;51.528;21.204;2024-02-15T00:01:04;210.15;;;27.08;;
22282;SDS011;11310;51.528;21.204;2024-02-15T00:03:35;90.30;;;14.10;;
22282;SDS011;11310;51.528;21.204;2024-02-15T00:06:03;111.20;;;16.45;;
22282;SDS011;11310;51.528;21.204;2024-02-15T00:08:39;122.38;;;18.13;;
22282;SDS011;11310;51.528;21.204;2024-02-15T00:11:08;164.20;;;21.67;;
22282;SDS011;11310;51.528;21.204;2024-02-15T00:13:38;104.10;;;15.38;;
22282;SDS011;11310;51.528;21.204;2024-02-15T00:16:13;92.03;;;13.77;;
22282;SDS011;11310;51.528;21.204;2024-02-15T00:18:44;104.60;;;14.82;;
22282;SDS011;11310;51.528;21.204;2024-02-15T00:21:14;91.85;;;14.18;;
22282;SDS011;11310;51.528;21.204;2024-02-15T00:23:43;114.43;;;16.48;;
22282;SDS011;11310;51.528;21.204;2024-02-15T00:26:12;104.35;;;15.82;;
22282;SDS011;11310;51.528;21.204;2024-02-15T00:28:41;126.07;;;18.10;;
22282;SDS011;11310;51.528;21.204;2024-02-15T00:31:10;80.88;;;12.55;;
22282;SDS011;11310;51.528;21.204;2024-02-15T00:33:40;102.80;;;16.25;;
22282;SDS011;11310;51.528;21.204;2024-02-15T00:36:14;85.47;;;13.73;;
22282;SDS011;11310;51.528;21.204;2024-02-15T00:38:47;147.15;;;20.42;;
22282;SDS011;11310;51.528;21.204;2024-02-15T00:41:24;118.40;;;15.85;;
22282;SDS011;11310;51.528;21.204;2024-02-15T00:43:53;150.15;;;19.88;;
22282;SDS011;11310;51.528;21.204;2024-02-15T00:46:26;105.95;;;15.25;;
22282;SDS011;11310;51.528;21.204;2024-02-15T00:48:56;196.18;;;25.58;;
22282;SDS011;11310;51.528;21.204;2024-02-15T00:51:27;109.07;;;15.38;;
22282;SDS011;11310;51.528;21.204;2024-02-15T00:53:56;149.70;;;20.20;;
22282;SDS011;11310;51.528;21.204;2024-02-15T00:56:26;119.68;;;16.27;;
22282;SDS011;11310;51.528;21.204;2024-02-15T00:59:01;204.50;;;25.98;;
22282;SDS011;11310;51.528;21.204;2024-02-15T01:01:31;162.23;;;21.25;;
22282;SDS011;11310;51.528;21.204;2024-02-15T01:04:00;163.05;;;22.30;;
22282;SDS011;11310;51.528;21.204;2024-02-15T01:06:31;193.98;;;23.83;;
22282;SDS011;11310;51.528;21.204;2024-02-15T01:09:02;141.25;;;19.23;;
22282;SDS011;11310;51.528;21.204;2024-02-15T01:11:38;165.48;;;21.25;;
22282;SDS011;11310;51.528;21.204;2024-02-15T01:14:06;99.40;;;14.93;;
22282;SDS011;11310;51.528;21.204;2024-02-15T01:16:37;139.35;;;18.65;;
22282;SDS011;11310;51.528;21.204;2024-02-15T01:19:06;188.90;;;24.75;;
22282;SDS011;11310;51.528;21.204;2024-02-15T01:21:37;196.43;;;24.08;;
22282;SDS011;11310;51.528;21.204;2024-02-15T01:24:06;122.55;;;16.60;;
22282;SDS011;11310;51.528;21.204;2024-02-15T01:26:35;158.52;;;19.73;;
22282;SDS011;11310;51.528;21.204;2024-02-15T01:29:03;133.82;;;19.25;;
22282;SDS011;11310;51.528;21.204;2024-02-15T01:31:32;208.10;;;25.85;;
22282;SDS011;11310;51.528;21.204;2024-02-15T01:34:02;141.25;;;19.98;;
22282;SDS011;11310;51.528;21.204;2024-02-15T01:36:30;210.93;;;25.83;;
22282;SDS011;11310;51.528;21.204;2024-02-15T01:39:01;183.82;;;23.90;;
22282;SDS011;11310;51.528;21.204;2024-02-15T01:41:30;105.32;;;14.98;;
22282;SDS011;11310;51.528;21.204;2024-02-15T01:44:00;249.15;;;31.02;;
22282;SDS011;11310;51.528;21.204;2024-02-15T01:46:29;146.45;;;18.23;;
22282;SDS011;11310;51.528;21.204;2024-02-15T01:48:58;267.27;;;33.58;;
22282;SDS011;11310;51.528;21.204;2024-02-15T01:51:28;129.45;;;16.55;;
22282;SDS011;11310;51.528;21.204;2024-02-15T01:53:57;166.63;;;21.17;;
22282;SDS011;11310;51.528;21.204;2024-02-15T01:56:30;166.55;;;21.38;;
22282;SDS011;11310;51.528;21.204;2024-02-15T01:59:00;121.45;;;16.17;;
22282;SDS011;11310;51.528;21.204;2024-02-15T02:01:29;187.88;;;24.17;;
22282;SDS011;11310;51.528;21.204;2024-02-15T02:03:59;110.63;;;16.30;;
22282;SDS011;11310;51.528;21.204;2024-02-15T02:06:28;114.95;;;17.70;;
22282;SDS011;11310;51.528;21.204;2024-02-15T02:08:59;86.57;;;13.82;;
22282;SDS011;11310;51.528;21.204;2024-02-15T02:11:31;122.32;;;17.98;;
22282;SDS011;11310;51.528;21.204;2024-02-15T02:14:01;49.42;;;9.18;;
22282;SDS011;11310;51.528;21.204;2024-02-15T02:16:30;111.45;;;17.25;;
22282;SDS011;11310;51.528;21.204;2024-02-15T02:18:59;95.25;;;14.35;;
22282;SDS011;11310;51.528;21.204;2024-02-15T02:21:28;79.78;;;12.68;;
22282;SDS011;11310;51.528;21.204;2024-02-15T02:23:57;99.97;;;15.48;;
22282;SDS011;11310;51.528;21.204;2024-02-15T02:26:32;95.43;;;14.65;;
22282;SDS011;11310;51.528;21.204;2024-02-15T02:29:01;92.43;;;14.80;;
22282;SDS011;11310;51.528;21.204;2024-02-15T02:31:32;94.55;;;15.05;;
22282;SDS011;11310;51.528;21.204;2024-02-15T02:34:02;112.03;;;17.48;;
22282;SDS011;11310;51.528;21.204;2024-02-15T02:36:37;74.72;;;13.05;;
22282;SDS011;11310;51.528;21.204;2024-02-15T02:39:07;97.03;;;15.02;;
22282;SDS011;11310;51.528;21.204;2024-02-15T02:41:38;95.32;;;15.27;;
22282;SDS011;11310;51.528;21.204;2024-02-15T02:44:07;127.35;;;19.58;;
22282;SDS011;11310;51.528;21.204;2024-02-15T02:46:36;83.45;;;13.70;;
22282;SDS011;11310;51.528;21.204;2024-02-15T02:49:05;179.93;;;28.27;;
22282;SDS011;11310;51.528;21.204;2024-02-15T02:51:35;97.07;;;15.90;;
22282;SDS011;11310;51.528;21.204;2024-02-15T02:54:04;81.97;;;14.18;;
22282;SDS011;11310;51.528;21.204;2024-02-15T02:56:33;215.43;;;31.35;;
22282;SDS011;11310;51.528;21.204;2024-02-15T02:59:03;87.25;;;14.93;;
22282;SDS011;11310;51.528;21.204;2024-02-15T03:01:34;134.57;;;20.80;;
22282;SDS011;11310;51.528;21.204;2024-02-15T03:04:03;52.67;;;10.38;;
22282;SDS011;11310;51.528;21.204;2024-02-15T03:06:32;119.28;;;18.38;;
22282;SDS011;11310;51.528;21.204;2024-02-15T03:09:00;106.50;;;16.67;;
22282;SDS011;11310;51.528;21.204;2024-02-15T03:11:34;104.03;;;16.90;;
22282;SDS011;11310;51.528;21.204;2024-02-15T03:14:04;64.38;;;11.27;;
22282;SDS011;11310;51.528;21.204;2024-02-15T03:16:36;130.85;;;19.58;;
22282;SDS011;11310;51.528;21.204;2024-02-15T03:19:05;129.48;;;20.35;;
22282;SDS011;11310;51.528;21.204;2024-02-15T03:21:37;97.70;;;15.80;;
22282;SDS011;11310;51.528;21.204;2024-02-15T03:24:05;127.47;;;19.80;;
22282;SDS011;11310;51.528;21.204;2024-02-15T03:26:34;85.35;;;14.43;;
22282;SDS011;11310;51.528;21.204;2024-02-15T03:29:07;109.63;;;18.02;;
22282;SDS011;11310;51.528;21.204;2024-02-15T03:31:38;85.93;;;14.55;;
22282;SDS011;11310;51.528;21.204;2024-02-15T03:34:06;88.72;;;15.43;;
22282;SDS011;11310;51.528;21.204;2024-02-15T03:36:37;81.30;;;13.40;;
22282;SDS011;11310;51.528;21.204;2024-02-15T03:39:06;116.43;;;18.30;;
22282;SDS011;11310;51.528;21.204;2024-02-15T03:41:35;110.72;;;16.70;;
22282;SDS011;11310;51.528;21.204;2024-02-15T03:44:03;101.35;;;15.73;;
22282;SDS011;11310;51.528;21.204;2024-02-15T03:46:33;130.80;;;19.48;;
22282;SDS011;11310;51.528;21.204;2024-02-15T03:49:02;93.03;;;15.40;;
22282;SDS011;11310;51.528;21.204;2024-02-15T03:51:30;106.20;;;17.08;;
22282;SDS011;11310;51.528;21.204;2024-02-15T03:53:59;79.88;;;13.45;;
22282;SDS011;11310;51.528;21.204;2024-02-15T03:56:27;119.85;;;18.70;;
22282;SDS011;11310;51.528;21.204;2024-02-15T03:58:58;86.85;;;14.10;;
22282;SDS011;11310;51.528;21.204;2024-02-15T04:01:30;156.48;;;23.25;;
22282;SDS011;11310;51.528;21.204;2024-02-15T04:04:04;86.32;;;14.55;;
22282;SDS011;11310;51.528;21.204;2024-02-15T04:06:33;106.30;;;17.20;;
22282;SDS011;11310;51.528;21.204;2024-02-15T04:09:01;95.60;;;15.38;;
22282;SDS011;11310;51.528;21.204;2024-02-15T04:11:36;101.57;;;17.05;;
22282;SDS011;11310;51.528;21.204;2024-02-15T04:14:05;91.90;;;15.25;;
22282;SDS011;11310;51.528;21.204;2024-02-15T04:16:35;126.93;;;19.52;;
22282;SDS011;11310;51.528;21.204;2024-02-15T04:19:04;77.47;;;13.95;;
22282;SDS011;11310;51.528;21.204;2024-02-15T04:21:35;104.43;;;16.95;;
22282;SDS011;11310;51.528;21.204;2024-02-15T04:24:05;86.72;;;14.77;;
22282;SDS011;11310;51.528;21.204;2024-02-15T04:26:36;105.85;;;16.88;;
22282;SDS011;11310;51.528;21.204;2024-02-15T04:29:05;86.70;;;14.48;;
22282;SDS011;11310;51.528;21.204;2024-02-15T04:31:37;100.18;;;15.98;;
22282;SDS011;11310;51.528;21.204;2024-02-15T04:34:06;122.03;;;19.20;;
22282;SDS011;11310;51.528;21.204;2024-02-15T04:36:36;104.57;;;16.60;;
22282;SDS011;11310;51.528;21.204;2024-02-15T04:39:05;116.75;;;17.83;;
22282;SDS011;11310;51.528;21.204;2024-02-15T04:41:38;112.47;;;17.92;;
22282;SDS011;11310;51.528;21.204;2024-02-15T04:44:07;90.18;;;15.75;;
22282;SDS011;11310;51.528;21.204;2024-02-15T04:46:40;129.30;;;20.10;;
22282;SDS011;11310;51.528;21.204;2024-02-15T04:49:12;143.38;;;22.55;;
22282;SDS011;11310;51.528;21.204;2024-02-15T04:51:44;97.85;;;16.95;;
22282;SDS011;11310;51.528;21.204;2024-02-15T04:54:14;85.75;;;16.15;;
22282;SDS011;11310;51.528;21.204;2024-02-15T04:56:45;86.82;;;15.15;;
22282;SDS011;11310;51.528;21.204;2024-02-15T04:59:14;78.45;;;15.18;;
22282;SDS011;11310;51.528;21.204;2024-02-15T05:01:44;115.88;;;18.23;;
22282;SDS011;11310;51.528;21.204;2024-02-15T05:04:13;91.60;;;15.90;;
22282;SDS011;11310;51.528;21.204;2024-02-15T05:06:47;137.40;;;21.00;;
22282;SDS011;11310;51.528;21.204;2024-02-15T05:09:16;91.70;;;16.05;;
22282;SDS011;11310;51.528;21.204;2024-02-15T05:11:45;134.90;;;20.73;;
22282;SDS011;11310;51.528;21.204;2024-02-15T05:14:15;101.10;;;19.05;;
22282;SDS011;11310;51.528;21.204;2024-02-15T05:16:47;125.72;;;19.27;;
22282;SDS011;11310;51.528;21.204;2024-02-15T05:19:17;97.82;;;16.90;;
22282;SDS011;11310;51.528;21.204;2024-02-15T05:21:51;127.88;;;19.67;;
22282;SDS011;11310;51.528;21.204;2024-02-15T05:24:20;97.57;;;16.83;;
22282;SDS011;11310;51.528;21.204;2024-02-15T05:26:49;130.45;;;20.25;;
22282;SDS011;11310;51.528;21.204;2024-02-15T05:29:19;115.25;;;19.02;;
22282;SDS011;11310;51.528;21.204;2024-02-15T05:31:54;98.88;;;16.63;;
22282;SDS011;11310;51.528;21.204;2024-02-15T05:34:24;88.25;;;15.13;;
22282;SDS011;11310;51.528;21.204;2024-02-15T05:36:56;113.65;;;17.65;;
22282;SDS011;11310;51.528;21.204;2024-02-15T05:39:25;82.43;;;13.95;;
22282;SDS011;11310;51.528;21.204;2024-02-15T05:41:53;122.35;;;19.50;;
22282;SDS011;11310;51.528;21.204;2024-02-15T05:44:28;105.22;;;17.75;;
22282;SDS011;11310;51.528;21.204;2024-02-15T05:46:59;104.28;;;17.52;;
22282;SDS011;11310;51.528;21.204;2024-02-15T05:49:27;110.53;;;18.42;;
22282;SDS011;11310;51.528;21.204;2024-02-15T05:51:58;87.53;;;15.65;;
22282;SDS011;11310;51.528;21.204;2024-02-15T05:54:27;120.03;;;18.67;;
22282;SDS011;11310;51.528;21.204;2024-02-15T05:56:57;130.73;;;21.48;;
22282;SDS011;11310;51.528;21.204;2024-02-15T05:59:34;89.30;;;15.93;;
22282;SDS011;11310;51.528;21.204;2024-02-15T06:02:04;135.05;;;21.73;;
22282;SDS011;11310;51.528;21.204;2024-02-15T06:04:35;86.50;;;15.32;;
22282;SDS011;11310;51.528;21.204;2024-02-15T06:07:03;100.85;;;16.63;;
22282;SDS011;11310;51.528;21.204;2024-02-15T06:09:36;96.75;;;16.77;;
22282;SDS011;11310;51.528;21.204;2024-02-15T06:12:07;112.05;;;18.63;;
22282;SDS011;11310;51.528;21.204;2024-02-15T06:14:36;83.30;;;14.93;;
22282;SDS011;11310;51.528;21.204;2024-02-15T06:17:10;101.57;;;17.98;;
22282;SDS011;11310;51.528;21.204;2024-02-15T06:19:41;124.50;;;19.90;;
22282;SDS011;11310;51.528;21.204;2024-02-15T06:22:12;99.25;;;16.33;;
22282;SDS011;11310;51.528;21.204;2024-02-15T06:24:41;112.80;;;17.98;;
22282;SDS011;11310;51.528;21.204;2024-02-15T06:27:10;126.25;;;19.48;;
22282;SDS011;11310;51.528;21.204;2024-02-15T06:29:39;110.68;;;17.65;;
22282;SDS011;11310;51.528;21.204;2024-02-15T06:32:30;119.35;;;19.20;;
22282;SDS011;11310;51.528;21.204;2024-02-15T06:35:17;133.73;;;20.55;;
22282;SDS011;11310;51.528;21.204;2024-02-15T06:38:07;102.60;;;16.98;;
22282;SDS011;11310;51.528;21.204;2024-02-15T06:40:55;127.18;;;20.63;;
22282;SDS011;11310;51.528;21.204;2024-02-15T06:43:27;123.83;;;19.57;;
22282;SDS011;11310;51.528;21.204;2024-02-15T06:45:56;141.15;;;21.63;;
22282;SDS011;11310;51.528;21.204;2024-02-15T06:48:27;101.80;;;17.27;;
22282;SDS011;11310;51.528;21.204;2024-02-15T06:50:58;222.45;;;32.10;;
22282;SDS011;11310;51.528;21.204;2024-02-15T06:53:30;194.90;;;28.63;;
22282;SDS011;11310;51.528;21.204;2024-02-15T06:56:00;170.75;;;25.05;;
22282;SDS011;11310;51.528;21.204;2024-02-15T06:58:36;186.90;;;27.40;;
22282;SDS011;11310;51.528;21.204;2024-02-15T07:01:08;112.30;;;18.05;;
22282;SDS011;11310;51.528;21.204;2024-02-15T07:03:45;172.52;;;25.85;;
22282;SDS011;11310;51.528;21.204;2024-02-15T07:06:14;147.77;;;22.40;;
22282;SDS011;11310;51.528;21.204;2024-02-15T07:08:43;121.30;;;19.00;;
22282;SDS011;11310;51.528;21.204;2024-02-15T07:11:14;101.18;;;17.08;;
22282;SDS011;11310;51.528;21.204;2024-02-15T07:13:44;107.72;;;18.45;;
22282;SDS011;11310;51.528;21.204;2024-02-15T07:16:16;93.47;;;21.20;;
22282;SDS011;11310;51.528;21.204;2024-02-15T07:18:53;97.53;;;20.38;;
22282;SDS011;11310;51.528;21.204;2024-02-15T07:21:26;80.70;;;17.92;;
22282;SDS011;11310;51.528;21.204;2024-02-15T07:23:56;98.38;;;18.83;;
22282;SDS011;11310;51.528;21.204;2024-02-15T07:26:29;77.97;;;17.15;;
22282;SDS011;11310;51.528;21.204;2024-02-15T07:28:58;116.30;;;22.08;;
22282;SDS011;11310;51.528;21.204;2024-02-15T07:31:29;71.78;;;16.88;;
22282;SDS011;11310;51.528;21.204;2024-02-15T07:34:03;95.82;;;18.90;;
22282;SDS011;11310;51.528;21.204;2024-02-15T07:36:32;99.47;;;20.08;;
22282;SDS011;11310;51.528;21.204;2024-02-15T07:39:01;115.07;;;22.42;;
22282;SDS011;11310;51.528;21.204;2024-02-15T07:41:31;136.10;;;26.05;;
22282;SDS011;11310;51.528;21.204;2024-02-15T07:44:03;91.57;;;18.90;;
22282;SDS011;11310;51.528;21.204;2024-02-15T07:46:32;105.70;;;20.52;;
22282;SDS011;11310;51.528;21.204;2024-02-15T07:49:02;84.18;;;17.38;;
22282;SDS011;11310;51.528;21.204;2024-02-15T07:51:34;125.32;;;23.67;;
22282;SDS011;11310;51.528;21.204;2024-02-15T07:54:04;76.07;;;17.45;;
22282;SDS011;11310;51.528;21.204;2024-02-15T07:56:35;114.80;;;21.10;;
22282;SDS011;11310;51.528;21.204;2024-02-15T07:59:05;81.68;;;17.48;;
22282;SDS011;11310;51.528;21.204;2024-02-15T08:01:39;135.45;;;25.27;;
22282;SDS011;11310;51.528;21.204;2024-02-15T08:04:15;88.30;;;18.25;;
22282;SDS011;11310;51.528;21.204;2024-02-15T08:06:46;82.57;;;18.10;;
22282;SDS011;11310;51.528;21.204;2024-02-15T08:09:19;132.95;;;23.83;;
22282;SDS011;11310;51.528;21.204;2024-02-15T08:11:52;97.45;;;19.00;;
22282;SDS011;11310;51.528;21.204;2024-02-15T08:14:25;99.57;;;19.67;;
22282;SDS011;11310;51.528;21.204;2024-02-15T08:16:54;92.60;;;18.88;;
22282;SDS011;11310;51.528;21.204;2024-02-15T08:19:25;114.75;;;22.92;;
22282;SDS011;11310;51.528;21.204;2024-02-15T08:21:56;107.47;;;20.20;;
22282;SDS011;11310;51.528;21.204;2024-02-15T08:24:32;78.60;;;17.35;;
22282;SDS011;11310;51.528;21.204;2024-02-15T08:27:03;89.00;;;19.50;;
22282;SDS011;11310;51.528;21.204;2024-02-15T08:29:32;97.22;;;19.95;;
22282;SDS011;11310;51.528;21.204;2024-02-15T08:32:09;112.22;;;22.50;;
22282;SDS011;11310;51.528;21.204;2024-02-15T08:34:40;95.10;;;19.45;;
22282;SDS011;11310;51.528;21.204;2024-02-15T08:37:09;66.78;;;16.05;;
22282;SDS011;11310;51.528;21.204;2024-02-15T08:39:38;110.38;;;22.08;;
22282;SDS011;11310;51.528;21.204;2024-02-15T08:42:06;81.45;;;17.63;;
22282;SDS011;11310;51.528;21.204;2024-02-15T08:44:36;133.45;;;24.50;;
22282;SDS011;11310;51.528;21.204;2024-02-15T08:47:04;81.38;;;17.95;;
22282;SDS011;11310;51.528;21.204;2024-02-15T08:49:33;118.07;;;22.48;;
22282;SDS011;11310;51.528;21.204;2024-02-15T08:52:04;104.40;;;20.13;;
22282;SDS011;11310;51.528;21.204;2024-02-15T08:54:35;86.78;;;18.65;;
22282;SDS011;11310;51.528;21.204;2024-02-15T08:57:07;77.63;;;16.88;;
22282;SDS011;11310;51.528;21.204;2024-02-15T08:59:40;122.20;;;22.38;;
22282;SDS011;11310;51.528;21.204;2024-02-15T09:02:09;69.22;;;15.80;;
22282;SDS011;11310;51.528;21.204;2024-02-15T09:04:38;118.45;;;21.63;;
22282;SDS011;11310;51.528;21.204;2024-02-15T09:07:13;101.35;;;20.15;;
22282;SDS011;11310;51.528;21.204;2024-02-15T09:09:44;99.18;;;19.77;;
22282;SDS011;11310;51.528;21.204;2024-02-15T09:12:14;119.35;;;22.02;;
22282;SDS011;11310;51.528;21.204;2024-02-15T09:14:43;126.65;;;22.73;;
22282;SDS011;11310;51.528;21.204;2024-02-15T09:17:11;106.28;;;20.65;;
22282;SDS011;11310;51.528;21.204;2024-02-15T09:19:43;112.25;;;21.20;;
22282;SDS011;11310;51.528;21.204;2024-02-15T09:22:18;112.75;;;21.42;;
22282;SDS011;11310;51.528;21.204;2024-02-15T09:24:47;90.45;;;18.33;;
22282;SDS011;11310;51.528;21.204;2024-02-15T09:27:16;103.68;;;20.35;;
22282;SDS011;11310;51.528;21.204;2024-02-15T09:29:45;100.75;;;20.33;;
22282;SDS011;11310;51.528;21.204;2024-02-15T09:32:13;85.32;;;18.30;;
22282;SDS011;11310;51.528;21.204;2024-02-15T09:34:44;92.97;;;18.77;;
22282;SDS011;11310;51.528;21.204;2024-02-15T09:37:17;107.15;;;20.98;;
22282;SDS011;11310;51.528;21.204;2024-02-15T09:39:51;102.28;;;21.95;;
22282;SDS011;11310;51.528;21.204;2024-02-15T09:42:20;81.60;;;19.65;;
22282;SDS011;11310;51.528;21.204;2024-02-15T09:44:49;115.80;;;23.20;;
22282;SDS011;11310;51.528;21.204;2024-02-15T09:47:18;95.78;;;20.88;;
22282;SDS011;11310;51.528;21.204;2024-02-15T09:49:48;128.70;;;25.88;;
22282;SDS011;11310;51.528;21.204;2024-02-15T09:52:18;79.65;;;20.38;;
22282;SDS011;11310;51.528;21.204;2024-02-15T09:54:47;114.50;;;24.00;;
22282;SDS011;11310;51.528;21.204;2024-02-15T09:57:18;73.93;;;19.02;;
22282;SDS011;11310;51.528;21.204;2024-02-15T09:59:51;112.45;;;23.05;;
22282;SDS011;11310;51.528;21.204;2024-02-15T10:02:19;26.05;;;12.98;;
22282;SDS011;11310;51.528;21.204;2024-02-15T10:07:24;27.13;;;11.48;;
22282;SDS011;11310;51.528;21.204;2024-02-15T10:09:56;27.73;;;12.27;;
22282;SDS011;11310;51.528;21.204;2024-02-15T10:12:35;29.63;;;13.77;;
22282;SDS011;11310;51.528;21.204;2024-02-15T10:15:06;30.17;;;13.80;;
22282;SDS011;11310;51.528;21.204;2024-02-15T10:17:36;29.33;;;13.65;;
22282;SDS011;11310;51.528;21.204;2024-02-15T10:20:05;29.08;;;13.38;;
22282;SDS011;11310;51.528;21.204;2024-02-15T10:22:38;23.83;;;12.00;;
22282;SDS011;11310;51.528;21.204;2024-02-15T10:25:10;30.20;;;12.45;;
22282;SDS011;11310;51.528;21.204;2024-02-15T10:27:40;25.55;;;11.20;;
22282;SDS011;11310;51.528;21.204;2024-02-15T10:30:14;26.35;;;11.77;;
22282;SDS011;11310;51.528;21.204;2024-02-15T10:32:44;23.92;;;11.35;;
22282;SDS011;11310;51.528;21.204;2024-02-15T10:35:20;27.42;;;12.10;;
22282;SDS011;11310;51.528;21.204;2024-02-15T10:37:50;25.45;;;10.70;;
22282;SDS011;11310;51.528;21.204;2024-02-15T10:40:20;20.42;;;10.27;;
22282;SDS011;11310;51.528;21.204;2024-02-15T10:42:50;23.75;;;11.50;;
22282;SDS011;11310;51.528;21.204;2024-02-15T10:45:25;22.63;;;11.38;;
22282;SDS011;11310;51.528;21.204;2024-02-15T10:47:55;28.77;;;12.07;;
22282;SDS011;11310;51.528;21.204;2024-02-15T10:50:24;26.13;;;11.68;;
22282;SDS011;11310;51.528;21.204;2024-02-15T10:52:55;27.25;;;12.57;;
22282;SDS011;11310;51.528;21.204;2024-02-15T10:55:27;26.33;;;11.30;;
22282;SDS011;11310;51.528;21.204;2024-02-15T10:58:06;26.35;;;12.10;;
22282;SDS011;11310;51.528;21.204;2024-02-15T11:00:36;27.70;;;13.48;;
22282;SDS011;11310;51.528;21.204;2024-02-15T11:03:07;27.03;;;11.53;;
22282;SDS011;11310;51.528;21.204;2024-02-15T11:05:40;25.45;;;11.95;;
22282;SDS011;11310;51.528;21.204;2024-02-15T11:08:15;26.05;;;11.93;;
22282;SDS011;11310;51.528;21.204;2024-02-15T11:10:43;26.42;;;12.23;;
22282;SDS011;11310;51.528;21.204;2024-02-15T11:13:15;32.60;;;11.65;;
22282;SDS011;11310;51.528;21.204;2024-02-15T11:15:44;28.45;;;11.75;;
22282;SDS011;11310;51.528;21.204;2024-02-15T11:21:13;26.38;;;13.27;;
22282;SDS011;11310;51.528;21.204;2024-02-15T11:23:44;28.10;;;13.43;;
22282;SDS011;11310;51.528;21.204;2024-02-15T11:32:39;23.27;;;11.63;;
22282;SDS011;11310;51.528;21.204;2024-02-15T11:35:11;27.40;;;12.20;;
22282;SDS011;11310;51.528;21.204;2024-02-15T11:37:49;27.38;;;12.90;;
22282;SDS011;11310;51.528;21.204;2024-02-15T11:40:24;31.52;;;13.52;;
22282;SDS011;11310;51.528;21.204;2024-02-15T11:42:54;25.45;;;12.13;;
22282;SDS011;11310;51.528;21.204;2024-02-15T11:45:27;27.55;;;12.52;;
22282;SDS011;11310;51.528;21.204;2024-02-15T11:48:02;23.58;;;12.02;;
22282;SDS011;11310;51.528;21.204;2024-02-15T11:50:39;26.90;;;12.20;;
22282;SDS011;11310;51.528;21.204;2024-02-15T11:53:09;27.73;;;12.52;;
22282;SDS011;11310;51.528;21.204;2024-02-15T11:55:40;29.42;;;12.65;;
22282;SDS011;11310;51.528;21.204;2024-02-15T11:58:09;22.02;;;10.48;;
22282;SDS011;11310;51.528;21.204;2024-02-15T12:00:49;27.55;;;12.00;;
22282;SDS011;11310;51.528;21.204;2024-02-15T12:03:35;23.13;;;11.13;;
22282;SDS011;11310;51.528;21.204;2024-02-15T12:06:33;23.40;;;11.25;;
22282;SDS011;11310;51.528;21.204;2024-02-15T12:09:19;28.27;;;11.38;;
22282;SDS011;11310;51.528;21.204;2024-02-15T12:12:07;26.35;;;11.15;;
22282;SDS011;11310;51.528;21.204;2024-02-15T12:14:58;24.70;;;11.85;;
22282;SDS011;11310;51.528;21.204;2024-02-15T12:17:45;30.95;;;15.10;;
22282;SDS011;11310;51.528;21.204;2024-02-15T12:20:32;24.67;;;12.25;;
22282;SDS011;11310;51.528;21.204;2024-02-15T12:25:35;25.00;;;11.20;;
22282;SDS011;11310;51.528;21.204;2024-02-15T12:28:07;25.58;;;11.38;;
22282;SDS011;11310;51.528;21.204;2024-02-15T12:30:36;25.85;;;11.55;;
22282;SDS011;11310;51.528;21.204;2024-02-15T12:33:09;23.50;;;11.35;;
22282;SDS011;11310;51.528;21.204;2024-02-15T12:35:38;26.80;;;11.93;;
22282;SDS011;11310;51.528;21.204;2024-02-15T12:38:11;26.13;;;11.30;;
22282;SDS011;11310;51.528;21.204;2024-02-15T12:40:45;26.88;;;11.10;;
22282;SDS011;11310;51.528;21.204;2024-02-15T12:43:17;27.00;;;12.10;;
22282;SDS011;11310;51.528;21.204;2024-02-15T12:45:46;25.83;;;12.32;;
22282;SDS011;11310;51.528;21.204;2024-02-15T12:48:14;24.13;;;11.23;;
22282;SDS011;11310;51.528;21.204;2024-02-15T12:50:46;24.77;;;12.00;;
22282;SDS011;11310;51.528;21.204;2024-02-15T12:53:20;24.58;;;11.93;;
22282;SDS011;11310;51.528;21.204;2024-02-15T12:55:53;25.33;;;11.52;;
22282;SDS011;11310;51.528;21.204;2024-02-15T12:58:27;24.58;;;12.00;;
22282;SDS011;11310;51.528;21.204;2024-02-15T13:01:00;24.90;;;11.63;;
22282;SDS011;11310;51.528;21.204;2024-02-15T13:03:31;27.13;;;12.00;;
22282;SDS011;11310;51.528;21.204;2024-02-15T13:06:06;24.08;;;11.52;;
22282;SDS011;11310;51.528;21.204;2024-02-15T13:08:44;22.60;;;11.38;;
22282;SDS011;11310;51.528;21.204;2024-02-15T13:11:15;24.95;;;11.75;;
22282;SDS011;11310;51.528;21.204;2024-02-15T13:13:48;30.48;;;14.32;;
22282;SDS011;11310;51.528;21.204;2024-02-15T13:16:17;59.50;;;24.83;;
22282;SDS011;11310;51.528;21.204;2024-02-15T13:18:47;86.35;;;35.45;;
22282;SDS011;11310;51.528;21.204;2024-02-15T13:21:16;126.45;;;49.17;;
22282;SDS011;11310;51.528;21.204;2024-02-15T13:23:46;172.07;;;67.18;;
22282;SDS011;11310;51.528;21.204;2024-02-15T13:26:16;193.35;;;75.88;;
22282;SDS011;11310;51.528;21.204;2024-02-15T13:28:48;139.27;;;56.63;;
22282;SDS011;11310;51.528;21.204;2024-02-15T13:31:17;119.47;;;44.33;;
22282;SDS011;11310;51.528;21.204;2024-02-15T13:33:54;102.68;;;36.17;;
22282;SDS011;11310;51.528;21.204;2024-02-15T13:36:24;87.53;;;30.92;;
22282;SDS011;11310;51.528;21.204;2024-02-15T13:39:07;92.07;;;30.35;;
22282;SDS011;11310;51.528;21.204;2024-02-15T13:41:37;83.55;;;29.88;;
22282;SDS011;11310;51.528;21.204;2024-02-15T13:44:08;43.95;;;18.83;;
22282;SDS011;11310;51.528;21.204;2024-02-15T13:46:37;74.82;;;26.17;;
22282;SDS011;11310;51.528;21.204;2024-02-15T13:49:11;51.78;;;19.95;;
22282;SDS011;11310;51.528;21.204;2024-02-15T13:51:55;67.18;;;22.70;;
22282;SDS011;11310;51.528;21.204;2024-02-15T13:54:29;58.67;;;22.38;;
22282;SDS011;11310;51.528;21.204;2024-02-15T13:57:06;41.08;;;17.88;;
22282;SDS011;11310;51.528;21.204;2024-02-15T13:59:38;37.35;;;15.45;;
22282;SDS011;11310;51.528;21.204;2024-02-15T14:02:07;66.30;;;25.85;;
22282;SDS011;11310;51.528;21.204;2024-02-15T14:04:36;82.20;;;31.77;;
22282;SDS011;11310;51.528;21.204;2024-02-15T14:07:05;71.25;;;28.90;;
22282;SDS011;11310;51.528;21.204;2024-02-15T14:09:37;50.55;;;21.58;;
22282;SDS011;11310;51.528;21.204;2024-02-15T14:12:05;34.43;;;16.13;;
22282;SDS011;11310;51.528;21.204;2024-02-15T14:14:40;48.22;;;21.55;;
22282;SDS011;11310;51.528;21.204;2024-02-15T14:17:11;65.15;;;26.90;;
22282;SDS011;11310;51.528;21.204;2024-02-15T14:19:46;36.67;;;16.35;;
22282;SDS011;11310;51.528;21.204;2024-02-15T14:22:17;30.05;;;12.10;;
22282;SDS011;11310;51.528;21.204;2024-02-15T14:24:48;29.17;;;12.95;;
22282;SDS011;11310;51.528;21.204;2024-02-15T14:27:19;34.85;;;16.83;;
22282;SDS011;11310;51.528;21.204;2024-02-15T14:29:50;56.63;;;26.33;;
22282;SDS011;11310;51.528;21.204;2024-02-15T14:32:33;60.17;;;29.83;;
22282;SDS011;11310;51.528;21.204;2024-02-15T14:35:19;42.25;;;20.48;;
22282;SDS011;11310;51.528;21.204;2024-02-15T14:37:48;30.17;;;15.10;;
22282;SDS011;11310;51.528;21.204;2024-02-15T14:40:17;23.08;;;10.50;;
22282;SDS011;11310;51.528;21.204;2024-02-15T14:42:55;24.60;;;11.95;;